Archival Weather

Chicago O'Hare International

Chicago, Illinois (KORD)

Report from: Saturday, December 31, 2022 12:51 PM CST
Current time: Tuesday, July 16, 2024 4:52 AM CDT

Current weather – Weather history – Daily summaries
Weather forecast

Temperature2.8°C (37.0°F)
Dew point-3.9°C (25.0°F)
Winds Calm
Visibility10 mi. (16.1 km)
Clouds Scattered clouds 14,000 ft. (4,267 m)
Ceiling: Broken clouds 18,000 ft. (5,486 m)
Broken clouds 25,000 ft. (7,620 m)
Altimeter29.89 in.Hg (1012 mB)
Relative humidity61 %
Density altitude-1,390 ft. (-424 m)
Sea-level pressure101.3 kPa (1013 mB, 29.91 in.Hg)
Remarks Automated weather observing station with precipitation discriminator
Flight conditions Visual Meteorological Conditions
Raw dataKORD 311851Z 00000KT 10SM SCT140 BKN180 BKN250 03/M04 A2989 RMK AO2 SLP127 T00281039
An error has occurred. This application may no longer respond until reloaded. Reload 🗙